createdAt,value
2017-02-04T00:00:10.970Z,0
2017-02-04T00:02:36.994Z,0
2017-02-04T00:04:56.664Z,0
2017-02-04T00:07:24.709Z,0
2017-02-04T00:09:53.045Z,0
2017-02-04T00:12:21.406Z,0
2017-02-04T00:14:50.379Z,0
2017-02-04T00:17:19.378Z,0
2017-02-04T00:19:50.321Z,0
2017-02-04T00:22:20.861Z,0
2017-02-04T00:24:48.201Z,0
2017-02-04T00:27:17.282Z,0
2017-02-04T00:29:43.682Z,0
2017-02-04T00:32:06.997Z,0
2017-02-04T00:34:30.884Z,0
2017-02-04T00:36:57.841Z,0
2017-02-04T00:39:24.346Z,0
2017-02-04T00:41:54.141Z,0
2017-02-04T00:44:25.350Z,0
2017-02-04T00:46:42.504Z,0
2017-02-04T00:49:04.815Z,0
2017-02-04T00:51:19.429Z,0
2017-02-04T00:53:31.588Z,0
2017-02-04T00:55:50.488Z,0
2017-02-04T00:58:04.188Z,0
2017-02-04T01:00:17.748Z,0
2017-02-04T01:02:30.849Z,0
2017-02-04T01:04:46.371Z,0
2017-02-04T01:07:01.383Z,0
2017-02-04T01:09:17.383Z,0
2017-02-04T01:11:31.732Z,0
2017-02-04T01:13:49.314Z,0
2017-02-04T01:16:05.862Z,0
2017-02-04T01:18:19.105Z,0
2017-02-04T01:20:34.482Z,0
2017-02-04T01:22:48.380Z,0
2017-02-04T01:25:02.080Z,0
2017-02-04T01:27:15.511Z,0
2017-02-04T01:29:31.286Z,0
2017-02-04T01:31:44.868Z,0
2017-02-04T01:33:57.715Z,0
2017-02-04T01:36:08.506Z,0
2017-02-04T01:38:22.628Z,0
2017-02-04T01:40:36.011Z,0
2017-02-04T01:42:49.443Z,0
2017-02-04T01:45:05.115Z,0
2017-02-04T01:47:18.950Z,0
2017-02-04T01:49:33.850Z,0
2017-02-04T01:51:47.803Z,0
2017-02-04T01:54:01.362Z,0
2017-02-04T01:56:14.336Z,0
2017-02-04T01:58:28.585Z,0
2017-02-04T02:00:40.775Z,0
2017-02-04T02:02:53.118Z,0
2017-02-04T02:05:05.414Z,0
2017-02-04T02:07:17.834Z,0
2017-02-04T02:09:30.202Z,0
2017-02-04T02:11:43.623Z,0
2017-02-04T02:13:56.773Z,0
2017-02-04T02:16:09.828Z,0
2017-02-04T02:18:22.007Z,0
2017-02-04T02:20:35.532Z,0
2017-02-04T02:22:48.140Z,0
2017-02-04T02:25:00.487Z,0
2017-02-04T02:27:12.895Z,0
2017-02-04T02:29:25.202Z,0
2017-02-04T02:31:37.709Z,0
2017-02-04T02:33:50.149Z,0
2017-02-04T02:38:13.376Z,0
2017-02-04T02:40:25.517Z,0
2017-02-04T02:42:37.729Z,0
2017-02-04T02:44:50.140Z,0
2017-02-04T02:47:02.365Z,0
2017-02-04T02:49:14.665Z,0
2017-02-04T02:51:27.026Z,0
2017-02-04T02:53:39.337Z,0
2017-02-04T02:55:51.500Z,0
2017-02-04T02:58:03.931Z,0
2017-02-04T03:00:16.465Z,0
2017-02-04T03:02:28.630Z,0
2017-02-04T03:04:40.921Z,0
2017-02-04T03:06:53.096Z,0
2017-02-04T03:09:05.279Z,0
2017-02-04T03:11:07.662Z,0
2017-02-04T03:13:19.852Z,0
2017-02-04T03:15:32.202Z,0
2017-02-04T03:17:44.610Z,0
2017-02-04T03:19:57.189Z,0
2017-02-04T03:22:09.534Z,0
2017-02-04T03:24:21.687Z,0
2017-02-04T03:26:33.983Z,0
2017-02-04T03:28:46.147Z,0
2017-02-04T03:30:58.348Z,0
2017-02-04T03:33:10.883Z,0
2017-02-04T03:35:23.600Z,0
2017-02-04T03:37:36.300Z,0
2017-02-04T03:39:48.507Z,0
2017-02-04T03:42:00.783Z,0
2017-02-04T03:44:13.038Z,0
2017-02-04T03:46:20.289Z,0
2017-02-04T03:48:32.648Z,0
2017-02-04T03:50:44.920Z,0
2017-02-04T03:52:57.442Z,0
2017-02-04T03:55:09.640Z,0
2017-02-04T03:57:11.870Z,0
2017-02-04T03:59:23.983Z,0
2017-02-04T04:01:36.124Z,0
2017-02-04T04:03:48.299Z,0
2017-02-04T04:06:00.422Z,0
2017-02-04T04:08:11.273Z,0
2017-02-04T04:10:23.487Z,0
2017-02-04T04:12:35.826Z,0
2017-02-04T04:14:48.178Z,0
2017-02-04T04:17:00.450Z,0
2017-02-04T04:19:12.740Z,0
2017-02-04T04:21:25.085Z,0
2017-02-04T04:23:37.272Z,0
2017-02-04T04:25:49.570Z,0
2017-02-04T04:28:01.904Z,0
2017-02-04T04:30:14.158Z,0
2017-02-04T04:32:26.411Z,0
2017-02-04T04:34:38.666Z,0
2017-02-04T04:36:50.848Z,0
2017-02-04T04:39:03.176Z,0
2017-02-04T04:41:15.568Z,0
2017-02-04T04:43:28.325Z,0
2017-02-04T04:45:40.860Z,0
2017-02-04T04:47:53.268Z,0
2017-02-04T04:50:05.637Z,0
2017-02-04T04:52:18.395Z,0
2017-02-04T04:54:30.855Z,0
2017-02-04T04:56:41.401Z,0
2017-02-04T04:58:53.850Z,0
2017-02-04T05:01:06.092Z,0
2017-02-04T05:03:18.333Z,0
2017-02-04T05:05:30.850Z,0
2017-02-04T05:07:42.998Z,0
2017-02-04T05:09:55.270Z,0
2017-02-04T05:12:07.561Z,0
2017-02-04T05:14:19.829Z,0
2017-02-04T05:16:32.092Z,0
2017-02-04T05:18:44.304Z,0
2017-02-04T05:20:56.765Z,0
2017-02-04T05:23:07.525Z,0
2017-02-04T05:25:19.845Z,0
2017-02-04T05:27:32.547Z,0
2017-02-04T05:29:44.771Z,0
2017-02-04T05:31:56.949Z,0
2017-02-04T05:34:09.263Z,0
2017-02-04T05:36:21.639Z,0
2017-02-04T05:38:33.901Z,0
2017-02-04T05:40:46.277Z,0
2017-02-04T05:42:58.476Z,0
2017-02-04T05:45:10.629Z,0
2017-02-04T05:47:22.817Z,0
2017-02-04T05:49:35.156Z,0
2017-02-04T05:51:47.520Z,0
2017-02-04T05:53:59.877Z,0
2017-02-04T05:56:12.275Z,0
2017-02-04T05:58:24.639Z,0
2017-02-04T06:00:36.946Z,0
2017-02-04T06:02:49.113Z,0
2017-02-04T06:05:01.303Z,0
2017-02-04T06:07:13.628Z,0
2017-02-04T06:09:20.900Z,4
2017-02-04T06:11:33.121Z,0
2017-02-04T06:13:45.397Z,4
2017-02-04T06:15:57.599Z,4
2017-02-04T06:18:08.019Z,8
2017-02-04T06:20:15.443Z,12
2017-02-04T06:22:22.893Z,24
2017-02-04T06:24:35.047Z,28
2017-02-04T06:26:47.361Z,40
2017-02-04T06:28:59.531Z,56
2017-02-04T06:31:11.904Z,76
2017-02-04T06:33:24.474Z,100
2017-02-04T06:35:31.961Z,132
2017-02-04T06:37:39.356Z,168
2017-02-04T06:39:51.584Z,212
2017-02-04T06:42:03.904Z,260
2017-02-04T06:44:16.132Z,304
2017-02-04T06:46:28.491Z,352
2017-02-04T06:48:40.835Z,400
2017-02-04T06:50:53.136Z,464
2017-02-04T06:53:05.497Z,532
2017-02-04T06:55:17.754Z,588
2017-02-04T06:57:30.102Z,632
2017-02-04T06:59:42.416Z,688
2017-02-04T07:01:49.787Z,748
2017-02-04T07:04:01.960Z,820
2017-02-04T07:06:14.213Z,888
2017-02-04T07:08:26.486Z,948
2017-02-04T07:10:38.773Z,1004
2017-02-04T07:12:51.065Z,1088
2017-02-04T07:15:03.291Z,1196
2017-02-04T07:17:15.712Z,1320
2017-02-04T07:19:27.973Z,1460
2017-02-04T07:21:40.315Z,1540
2017-02-04T07:23:52.443Z,1624
2017-02-04T07:26:04.656Z,1716
2017-02-04T07:28:16.882Z,1800
2017-02-04T07:30:29.064Z,1888
2017-02-04T07:32:41.438Z,2012
2017-02-04T07:34:53.750Z,2096
2017-02-04T07:37:06.092Z,2164
2017-02-04T07:39:18.606Z,2348
2017-02-04T07:41:30.804Z,2580
2017-02-04T07:43:43.047Z,2828
2017-02-04T07:45:55.450Z,2680
2017-02-04T07:48:07.860Z,2788
2017-02-04T07:50:20.214Z,2844
2017-02-04T07:52:32.729Z,2832
2017-02-04T07:54:45.132Z,2832
2017-02-04T07:56:57.343Z,2948
2017-02-04T07:59:09.467Z,2980
2017-02-04T08:01:21.653Z,3052
2017-02-04T08:03:29.061Z,3108
2017-02-04T08:05:41.432Z,3140
2017-02-04T08:07:53.630Z,3088
2017-02-04T08:10:05.888Z,3408
2017-02-04T08:12:18.129Z,3752
2017-02-04T08:14:30.369Z,3520
2017-02-04T08:16:42.602Z,3520
2017-02-04T08:18:50.030Z,3352
2017-02-04T08:21:00.528Z,3024
2017-02-04T08:23:12.748Z,3016
2017-02-04T08:25:24.970Z,3180
2017-02-04T08:27:37.218Z,3160
2017-02-04T08:29:49.431Z,3328
2017-02-04T08:32:01.702Z,3456
2017-02-04T08:34:13.942Z,3184
2017-02-04T08:36:26.172Z,3404
2017-02-04T08:38:38.475Z,4064
2017-02-04T08:40:50.751Z,4808
2017-02-04T08:43:01.300Z,4904
2017-02-04T08:45:13.683Z,5020
2017-02-04T08:47:26.059Z,4804
2017-02-04T08:49:38.290Z,4472
2017-02-04T08:51:50.547Z,4344
2017-02-04T08:54:02.812Z,4104
2017-02-04T08:56:10.610Z,3900
2017-02-04T08:58:22.993Z,4092
2017-02-04T09:00:30.668Z,4580
2017-02-04T09:02:42.957Z,4508
2017-02-04T09:04:55.302Z,4424
2017-02-04T09:07:07.536Z,4484
2017-02-04T09:09:19.865Z,4796
2017-02-04T09:11:32.100Z,5364
2017-02-04T09:13:39.304Z,6192
2017-02-04T09:15:51.818Z,19104
2017-02-04T09:18:04.048Z,21568
2017-02-04T09:20:16.505Z,8268
2017-02-04T09:22:28.832Z,7772
2017-02-04T09:24:41.061Z,9960
2017-02-04T09:26:53.282Z,7588
2017-02-04T09:29:05.621Z,7632
2017-02-04T09:31:18.072Z,20128
2017-02-04T09:33:30.446Z,26976
2017-02-04T09:35:42.697Z,23904
2017-02-04T09:37:54.965Z,28256
2017-02-04T09:40:07.262Z,27040
2017-02-04T09:42:19.564Z,24352
2017-02-04T09:44:31.752Z,22336
2017-02-04T09:46:43.947Z,22144
2017-02-04T09:48:56.422Z,20672
2017-02-04T09:51:08.706Z,17888
2017-02-04T09:53:21.171Z,18304
2017-02-04T09:55:33.434Z,13664
2017-02-04T09:57:45.642Z,14944
2017-02-04T09:59:58.032Z,16992
2017-02-04T10:02:10.453Z,18080
2017-02-04T10:04:22.618Z,19328
2017-02-04T10:06:35.034Z,20928
2017-02-04T10:08:47.297Z,19552
2017-02-04T10:10:59.829Z,20192
2017-02-04T10:13:13.110Z,19872
2017-02-04T10:15:25.412Z,18816
2017-02-04T10:17:37.660Z,17984
2017-02-04T10:19:48.166Z,18944
2017-02-04T10:22:00.494Z,17344
2017-02-04T10:24:12.791Z,18528
2017-02-04T10:26:20.123Z,19584
2017-02-04T10:28:32.477Z,19680
2017-02-04T10:30:44.653Z,20832
2017-02-04T10:32:57.199Z,20032
2017-02-04T10:35:09.533Z,18272
2017-02-04T10:37:21.971Z,16608
2017-02-04T10:39:34.667Z,16768
2017-02-04T10:41:47.011Z,16032
2017-02-04T10:43:59.383Z,19456
2017-02-04T10:46:11.827Z,18112
2017-02-04T10:48:24.204Z,18688
2017-02-04T10:50:36.478Z,15040
2017-02-04T10:52:48.807Z,15136
2017-02-04T10:55:01.041Z,13032
2017-02-04T10:57:13.351Z,11988
2017-02-04T10:59:25.699Z,11876
2017-02-04T11:01:37.976Z,11632
2017-02-04T11:03:50.296Z,11380
2017-02-04T11:06:02.663Z,11296
2017-02-04T11:08:15.184Z,10648
2017-02-04T11:10:22.624Z,10092
2017-02-04T11:12:34.984Z,10024
2017-02-04T11:14:47.301Z,10464
2017-02-04T11:16:59.639Z,11188
2017-02-04T11:19:06.960Z,12224
2017-02-04T11:21:19.282Z,13240
2017-02-04T11:23:31.525Z,14496
2017-02-04T11:25:43.731Z,15360
2017-02-04T11:27:56.063Z,17280
2017-02-04T11:30:08.350Z,16928
2017-02-04T11:32:20.664Z,17952
2017-02-04T11:34:28.159Z,20512
2017-02-04T11:36:40.534Z,19776
2017-02-04T11:38:52.742Z,19552
2017-02-04T11:41:05.358Z,18912
2017-02-04T11:43:18.590Z,15904
2017-02-04T11:45:31.366Z,22208
2017-02-04T11:47:45.241Z,21536
2017-02-04T11:49:57.514Z,22656
2017-02-04T11:52:12.704Z,24000
2017-02-04T11:54:27.707Z,22368
2017-02-04T11:56:41.119Z,21600
2017-02-04T11:58:53.479Z,21312
2017-02-04T12:01:05.690Z,19104
2017-02-04T12:03:17.915Z,16928
2017-02-04T12:05:30.313Z,16384
2017-02-04T12:07:42.883Z,15360
2017-02-04T12:09:55.063Z,15744
2017-02-04T12:12:07.393Z,21120
2017-02-04T12:14:19.610Z,26720
2017-02-04T12:16:32.448Z,21472
2017-02-04T12:18:44.793Z,14752
2017-02-04T12:20:57.118Z,16160
2017-02-04T12:23:09.612Z,13060
2017-02-04T12:25:21.940Z,14304
2017-02-04T12:27:34.192Z,18848
2017-02-04T12:29:46.780Z,19296
2017-02-04T12:31:54.033Z,22016
2017-02-04T12:34:06.413Z,31872
2017-02-04T12:36:18.685Z,22624
2017-02-04T12:38:31.048Z,14560
2017-02-04T12:40:43.481Z,12352
2017-02-04T12:42:55.864Z,11928
2017-02-04T12:45:08.311Z,12676
2017-02-04T12:47:20.575Z,12256
2017-02-04T12:49:32.817Z,11168
2017-02-04T12:51:45.351Z,11352
2017-02-04T12:53:52.744Z,11540
2017-02-04T12:56:04.847Z,11944
2017-02-04T12:58:17.464Z,11792
2017-02-04T13:00:29.703Z,12228
2017-02-04T13:02:42.204Z,11748
2017-02-04T13:05:03.382Z,11056
2017-02-04T13:07:36.218Z,9912
2017-02-04T13:10:02.035Z,8960
2017-02-04T13:12:37.342Z,8596
2017-02-04T13:15:03.045Z,8036
2017-02-04T13:17:37.280Z,7384
2017-02-04T13:20:12.560Z,6784
2017-02-04T13:22:40.261Z,6412
2017-02-04T13:25:07.747Z,6048
2017-02-04T13:27:33.756Z,5792
2017-02-04T13:29:56.673Z,5748
2017-02-04T13:32:14.867Z,5488
2017-02-04T13:34:34.743Z,4956
2017-02-04T13:36:52.250Z,4600
2017-02-04T13:39:12.157Z,4488
2017-02-04T13:41:47.841Z,4500
2017-02-04T13:44:20.685Z,4300
2017-02-04T13:46:50.237Z,4168
2017-02-04T13:49:31.463Z,4140
2017-02-04T13:52:04.169Z,4092
2017-02-04T13:54:23.137Z,3964
2017-02-04T13:56:52.823Z,3660
2017-02-04T13:59:23.334Z,3440
2017-02-04T14:01:51.371Z,3448
2017-02-04T14:04:21.036Z,3312
2017-02-04T14:06:38.775Z,3264
2017-02-04T14:09:09.010Z,3328
2017-02-04T14:11:36.867Z,3444
2017-02-04T14:14:00.193Z,3340
2017-02-04T14:16:19.551Z,3064
2017-02-04T14:18:42.667Z,2864
2017-02-04T14:21:03.761Z,2712
2017-02-04T14:23:32.811Z,2632
2017-02-04T14:26:06.795Z,2464
2017-02-04T14:28:36.286Z,1720
2017-02-04T14:31:06.567Z,1452
2017-02-04T14:33:34.928Z,1988
2017-02-04T14:36:03.291Z,2132
2017-02-04T14:38:35.542Z,2024
2017-02-04T14:41:05.952Z,1888
2017-02-04T14:43:35.149Z,1836
2017-02-04T14:46:04.412Z,1840
2017-02-04T14:48:37.120Z,1900
2017-02-04T14:51:05.744Z,1996
2017-02-04T14:53:34.277Z,2004
2017-02-04T14:55:57.532Z,1884
2017-02-04T14:58:24.774Z,1584
2017-02-04T15:00:53.484Z,1264
2017-02-04T15:03:24.066Z,1072
2017-02-04T15:05:45.453Z,920
2017-02-04T15:07:58.925Z,804
2017-02-04T15:10:11.608Z,780
2017-02-04T15:12:24.836Z,816
2017-02-04T15:14:32.144Z,840
2017-02-04T15:16:58.313Z,860
2017-02-04T15:19:23.159Z,876
2017-02-04T15:21:35.456Z,860
2017-02-04T15:23:47.873Z,808
2017-02-04T15:26:07.797Z,816
2017-02-04T15:28:28.894Z,844
2017-02-04T15:30:46.692Z,848
2017-02-04T15:33:13.134Z,812
2017-02-04T15:35:36.102Z,700
2017-02-04T15:38:04.669Z,616
2017-02-04T15:40:24.558Z,568
2017-02-04T15:42:46.905Z,580
2017-02-04T15:44:59.353Z,648
2017-02-04T15:47:19.455Z,748
2017-02-04T15:49:47.257Z,764
2017-02-04T15:52:14.303Z,576
2017-02-04T15:54:46.151Z,448
2017-02-04T15:57:14.356Z,332
2017-02-04T15:59:45.966Z,256
2017-02-04T16:02:15.534Z,224
2017-02-04T16:04:43.856Z,216
2017-02-04T16:07:13.126Z,212
2017-02-04T16:09:42.301Z,200
2017-02-04T16:12:12.811Z,196
2017-02-04T16:14:40.069Z,176
2017-02-04T16:16:58.344Z,140
2017-02-04T16:19:10.793Z,132
2017-02-04T16:21:23.385Z,120
2017-02-04T16:23:35.901Z,108
2017-02-04T16:25:49.480Z,88
2017-02-04T16:28:22.097Z,64
2017-02-04T16:30:42.568Z,48
2017-02-04T16:32:54.895Z,32
2017-02-04T16:35:19.152Z,24
2017-02-04T16:37:47.551Z,16
2017-02-04T16:40:08.767Z,8
2017-02-04T16:42:26.271Z,8
2017-02-04T16:44:45.157Z,4
2017-02-04T16:47:15.302Z,4
2017-02-04T16:49:43.714Z,4
2017-02-04T16:52:14.159Z,0
2017-02-04T16:54:41.402Z,0
2017-02-04T16:57:11.272Z,0
2017-02-04T16:59:38.546Z,0
2017-02-04T17:02:06.557Z,0
2017-02-04T17:04:35.492Z,0
2017-02-04T17:07:01.082Z,0
2017-02-04T17:09:20.583Z,0
2017-02-04T17:11:47.506Z,0
2017-02-04T17:14:13.163Z,0
2017-02-04T17:16:36.402Z,0
2017-02-04T17:18:54.880Z,0
2017-02-04T17:21:19.642Z,0
2017-02-04T17:23:45.257Z,0
2017-02-04T17:26:13.020Z,0
2017-02-04T17:28:39.951Z,0
2017-02-04T17:31:09.586Z,0
2017-02-04T17:33:39.359Z,0
2017-02-04T17:36:11.262Z,0
2017-02-04T17:38:28.018Z,0
2017-02-04T17:40:35.294Z,0
2017-02-04T17:42:47.742Z,0
2017-02-04T17:45:00.098Z,0
2017-02-04T17:47:12.431Z,0
2017-02-04T17:49:25.170Z,0
2017-02-04T17:51:37.661Z,0
2017-02-04T17:53:49.963Z,0
2017-02-04T17:56:02.215Z,0
2017-02-04T17:58:15.090Z,0
2017-02-04T18:00:22.592Z,0
2017-02-04T18:02:35.005Z,0
2017-02-04T18:04:47.426Z,0
2017-02-04T18:06:59.911Z,0
2017-02-04T18:09:12.364Z,0
2017-02-04T18:11:29.086Z,0
2017-02-04T18:13:44.867Z,0
2017-02-04T18:16:01.881Z,0
2017-02-04T18:18:17.710Z,0
2017-02-04T18:20:32.880Z,0
2017-02-04T18:22:49.357Z,0
2017-02-04T18:25:05.038Z,0
2017-02-04T18:27:20.246Z,0
2017-02-04T18:29:35.906Z,0
2017-02-04T18:31:51.896Z,0
2017-02-04T18:34:06.908Z,0
2017-02-04T18:36:22.457Z,0
2017-02-04T18:38:38.523Z,0
2017-02-04T18:40:51.492Z,0
2017-02-04T18:43:05.181Z,0
2017-02-04T18:45:20.411Z,0
2017-02-04T18:47:36.234Z,0
2017-02-04T18:49:51.535Z,0
2017-02-04T18:52:06.853Z,0
2017-02-04T18:54:21.912Z,0
2017-02-04T18:56:36.576Z,0
2017-02-04T18:58:51.287Z,0
2017-02-04T19:01:06.292Z,0
2017-02-04T19:03:22.140Z,0
2017-02-04T19:05:38.050Z,0
2017-02-04T19:07:50.834Z,0
2017-02-04T19:10:03.105Z,0
2017-02-04T19:12:27.249Z,0
2017-02-04T19:14:53.078Z,0
2017-02-04T19:17:13.610Z,0
2017-02-04T19:19:46.676Z,0
2017-02-04T19:22:11.505Z,0
2017-02-04T19:24:37.032Z,0
2017-02-04T19:27:01.819Z,0
2017-02-04T19:29:29.543Z,0
2017-02-04T19:31:51.281Z,0
2017-02-04T19:34:18.376Z,0
2017-02-04T19:36:44.139Z,0
2017-02-04T19:39:05.787Z,0
2017-02-04T19:41:32.487Z,0
2017-02-04T19:44:00.298Z,0
2017-02-04T19:46:19.117Z,0
2017-02-04T19:48:47.938Z,0
2017-02-04T19:51:14.289Z,0
2017-02-04T19:53:32.714Z,0
2017-02-04T19:55:54.827Z,0
2017-02-04T19:58:22.550Z,0
2017-02-04T20:00:47.558Z,0
2017-02-04T20:03:11.973Z,0
2017-02-04T20:05:36.978Z,0
2017-02-04T20:08:05.993Z,0
2017-02-04T20:10:35.829Z,0
2017-02-04T20:12:56.698Z,0
2017-02-04T20:15:19.273Z,0
2017-02-04T20:17:38.300Z,0
2017-02-04T20:19:58.432Z,0
2017-02-04T20:22:13.040Z,0
2017-02-04T20:24:25.220Z,0
2017-02-04T20:26:37.656Z,0
2017-02-04T20:28:50.506Z,0
2017-02-04T20:31:02.739Z,0
2017-02-04T20:33:15.008Z,0
2017-02-04T20:35:27.508Z,0
2017-02-04T20:37:39.869Z,0
2017-02-04T20:39:52.398Z,0
2017-02-04T20:42:04.826Z,0
2017-02-04T20:44:18.147Z,0
2017-02-04T20:46:30.629Z,0
2017-02-04T20:48:45.569Z,0
2017-02-04T20:50:57.907Z,0
2017-02-04T20:53:10.406Z,0
2017-02-04T20:55:23.259Z,0
2017-02-04T20:57:40.254Z,0
2017-02-04T20:59:48.803Z,0
2017-02-04T21:02:02.896Z,0
2017-02-04T21:04:17.225Z,0
2017-02-04T21:06:31.839Z,0
2017-02-04T21:08:46.384Z,0
2017-02-04T21:10:59.986Z,0
2017-02-04T21:13:13.776Z,0
2017-02-04T21:15:28.607Z,0
2017-02-04T21:17:48.664Z,0
2017-02-04T21:20:04.414Z,0
2017-02-04T21:22:21.893Z,0
2017-02-04T21:24:34.424Z,0
2017-02-04T21:26:50.018Z,0
2017-02-04T21:29:03.740Z,0
2017-02-04T21:31:17.620Z,0
2017-02-04T21:33:27.919Z,0
2017-02-04T21:35:41.932Z,0
2017-02-04T21:37:56.217Z,0
2017-02-04T21:40:12.156Z,0
2017-02-04T21:42:29.327Z,0
2017-02-04T21:44:42.297Z,0
2017-02-04T21:46:58.915Z,0
2017-02-04T21:49:15.652Z,0
2017-02-04T21:51:33.022Z,0
2017-02-04T21:53:49.371Z,0
2017-02-04T21:56:05.747Z,0
2017-02-04T21:58:15.493Z,0
2017-02-04T22:00:30.946Z,0
2017-02-04T22:02:46.342Z,0
2017-02-04T22:05:00.883Z,0
2017-02-04T22:07:13.636Z,0
2017-02-04T22:09:26.911Z,0
2017-02-04T22:11:30.136Z,0
2017-02-04T22:13:43.173Z,0
2017-02-04T22:16:02.267Z,0
2017-02-04T22:18:15.228Z,0
2017-02-04T22:20:29.668Z,0
2017-02-04T22:22:42.578Z,0
2017-02-04T22:24:56.986Z,0
2017-02-04T22:27:10.897Z,0
2017-02-04T22:29:23.214Z,0
2017-02-04T22:31:35.445Z,0
2017-02-04T22:33:50.613Z,0
2017-02-04T22:36:07.943Z,0
2017-02-04T22:38:17.818Z,0
2017-02-04T22:40:34.723Z,0
2017-02-04T22:42:48.048Z,0
2017-02-04T22:45:01.272Z,0
2017-02-04T22:47:15.741Z,0
2017-02-04T22:49:29.637Z,0
2017-02-04T22:51:43.949Z,0
2017-02-04T22:53:56.648Z,0
2017-02-04T22:56:13.055Z,0
2017-02-04T22:58:26.081Z,0
2017-02-04T23:00:40.953Z,0
2017-02-04T23:02:56.916Z,0
2017-02-04T23:05:10.101Z,0
2017-02-04T23:07:26.446Z,0
2017-02-04T23:09:41.278Z,0
2017-02-04T23:11:54.117Z,0
2017-02-04T23:14:07.326Z,0
2017-02-04T23:16:22.959Z,0
2017-02-04T23:18:39.453Z,0
2017-02-04T23:20:52.280Z,0
2017-02-04T23:23:05.705Z,0
2017-02-04T23:25:19.226Z,0
2017-02-04T23:27:32.423Z,0
2017-02-04T23:29:45.557Z,0
2017-02-04T23:31:59.582Z,0
2017-02-04T23:34:12.275Z,0
2017-02-04T23:36:25.242Z,0
2017-02-04T23:38:44.438Z,0
2017-02-04T23:41:00.465Z,0
2017-02-04T23:43:12.818Z,0
2017-02-04T23:45:25.584Z,0
2017-02-04T23:47:39.965Z,0
2017-02-04T23:49:56.008Z,0
2017-02-04T23:52:08.838Z,0
2017-02-04T23:54:25.089Z,0
2017-02-04T23:56:41.470Z,0
2017-02-04T23:58:54.244Z,0
